Corinthiakos — A8UL2 — position and weather

sailwx.info

Track history (hours):
 
Tides and Currents Weather Stations Pressure Air Temp Water Temp Dewpoint Dewpoint Depression Visibility Wind Speed Wind Dir Waves Ship Positions

Corinthiakos

Last reported at 2016-Feb-14 07:33 UTC. Time now 2016-Feb-14 08:08 UTC.
Position N 22°35' E 120°18'.

Length 262 m; draft 10.5 m.

Type: Cargo ship. MMSI: 636014516.

Date/timePositionNaut miles runAvg speedWind from/ knotsBaromVisibWave heightAir tempDewpointWater temp
2016-Feb-14 07:33N 22°35' E 120°18'0 0.0
2016-Feb-14 06:21N 22°35' E 120°18'0 0.0
2016-Feb-14 05:33N 22°35' E 120°18'0 0.0
2016-Feb-14 04:33N 22°35' E 120°18'0 0.0
2016-Feb-14 03:33N 22°35' E 120°18'0 0.0
2016-Feb-14 02:33N 22°35' E 120°18'0 0.0
2016-Feb-14 01:33N 22°35' E 120°18'0 0.0
2016-Feb-14 00:33N 22°35' E 120°18'0 0.0
2016-Feb-13 23:33N 22°35' E 120°18'2 1.6
2016-Feb-13 22:33N 22°33' E 120°19'9 8.7
2016-Feb-13 21:33N 22°31' E 120°10'1817.9
2016-Feb-13 20:33N 22°25' E 119°52'  
2016-Feb-10 06:29N 01°17' E 104°15'1718.7
2016-Feb-10 05:34N 01°14' E 103°58'7 7.2
2016-Feb-10 04:33N 01°16' E 103°51'0 0.0
2016-Feb-10 03:31N 01°16' E 103°51'0 0.0
2016-Feb-10 02:28N 01°16' E 103°51'0 0.0
2016-Feb-10 01:19N 01°16' E 103°51'0 0.0
2016-Feb-09 23:25N 01°16' E 103°51'0 0.0
2016-Feb-09 22:31N 01°16' E 103°51'0 0.0
2016-Feb-09 21:31N 01°16' E 103°51'0 0.0
2016-Feb-09 20:31N 01°16' E 103°51'0 0.0
2016-Feb-09 19:31N 01°16' E 103°51'0 0.0
2016-Feb-09 17:31N 01°16' E 103°51'0 0.0
2016-Feb-09 16:32N 01°16' E 103°51'0 0.0
2016-Feb-09 15:33N 01°16' E 103°51'2 2.1
2016-Feb-09 14:33N 01°14' E 103°52'3 3.1
2016-Feb-09 13:33N 01°11' E 103°52'8213.3
2016-Feb-09 07:21N 01°43' E 102°36'1315.0
2016-Feb-09 06:29N 01°49' E 102°24'  
Track history (hours):
 
Tides and Currents Weather Stations Pressure Air Temp Water Temp Dewpoint Dewpoint Depression Visibility Wind Speed Wind Dir Waves Ship Positions

Corinthiakos

Last reported at 2016-Feb-14 07:33 UTC. Time now 2016-Feb-14 08:08 UTC.
Position N 22°35' E 120°18'.

Length 262 m; draft 10.5 m.

Type: Cargo ship. MMSI: 636014516.

Date/timePositionNaut miles runAvg speedWind from/ knotsBaromVisibWave heightAir tempDewpointWater temp
2016-Feb-14 07:33N 22°35' E 120°18'0 0.0
2016-Feb-14 06:21N 22°35' E 120°18'0 0.0
2016-Feb-14 05:33N 22°35' E 120°18'0 0.0
2016-Feb-14 04:33N 22°35' E 120°18'0 0.0
2016-Feb-14 03:33N 22°35' E 120°18'0 0.0
2016-Feb-14 02:33N 22°35' E 120°18'0 0.0
2016-Feb-14 01:33N 22°35' E 120°18'0 0.0
2016-Feb-14 00:33N 22°35' E 120°18'0 0.0
2016-Feb-13 23:33N 22°35' E 120°18'2 1.6
2016-Feb-13 22:33N 22°33' E 120°19'9 8.7
2016-Feb-13 21:33N 22°31' E 120°10'1817.9
2016-Feb-13 20:33N 22°25' E 119°52'  
2016-Feb-10 06:29N 01°17' E 104°15'1718.7
2016-Feb-10 05:34N 01°14' E 103°58'7 7.2
2016-Feb-10 04:33N 01°16' E 103°51'0 0.0
2016-Feb-10 03:31N 01°16' E 103°51'0 0.0
2016-Feb-10 02:28N 01°16' E 103°51'0 0.0
2016-Feb-10 01:19N 01°16' E 103°51'0 0.0
2016-Feb-09 23:25N 01°16' E 103°51'0 0.0
2016-Feb-09 22:31N 01°16' E 103°51'0 0.0
2016-Feb-09 21:31N 01°16' E 103°51'0 0.0
2016-Feb-09 20:31N 01°16' E 103°51'0 0.0
2016-Feb-09 19:31N 01°16' E 103°51'0 0.0
2016-Feb-09 17:31N 01°16' E 103°51'0 0.0
2016-Feb-09 16:32N 01°16' E 103°51'0 0.0
2016-Feb-09 15:33N 01°16' E 103°51'2 2.1
2016-Feb-09 14:33N 01°14' E 103°52'3 3.1
2016-Feb-09 13:33N 01°11' E 103°52'8213.3
2016-Feb-09 07:21N 01°43' E 102°36'1315.0
2016-Feb-09 06:29N 01°49' E 102°24'  

Dump ship's entire track history